sensor_id;sensor_type;location;lat;lon;timestamp;P1;durP1;ratioP1;P2;durP2;ratioP2
51560;SDS011;37654;51.262;17.058;2023-01-23T00:01:37;68.72;;;27.83;;
51560;SDS011;37654;51.262;17.058;2023-01-23T00:04:03;64.68;;;26.27;;
51560;SDS011;37654;51.262;17.058;2023-01-23T00:06:29;66.97;;;26.25;;
51560;SDS011;37654;51.262;17.058;2023-01-23T00:08:54;68.82;;;28.42;;
51560;SDS011;37654;51.262;17.058;2023-01-23T00:11:21;64.22;;;27.20;;
51560;SDS011;37654;51.262;17.058;2023-01-23T00:13:47;74.50;;;26.35;;
51560;SDS011;37654;51.262;17.058;2023-01-23T00:16:14;70.05;;;28.63;;
51560;SDS011;37654;51.262;17.058;2023-01-23T00:18:40;69.85;;;29.45;;
51560;SDS011;37654;51.262;17.058;2023-01-23T00:21:09;68.10;;;25.85;;
51560;SDS011;37654;51.262;17.058;2023-01-23T00:23:34;77.20;;;29.35;;
51560;SDS011;37654;51.262;17.058;2023-01-23T00:26:01;84.20;;;31.42;;
51560;SDS011;37654;51.262;17.058;2023-01-23T00:28:26;87.75;;;32.50;;
51560;SDS011;37654;51.262;17.058;2023-01-23T00:30:51;85.78;;;29.60;;
51560;SDS011;37654;51.262;17.058;2023-01-23T00:33:17;86.25;;;29.70;;
51560;SDS011;37654;51.262;17.058;2023-01-23T00:35:42;89.53;;;33.17;;
51560;SDS011;37654;51.262;17.058;2023-01-23T00:38:07;102.78;;;35.70;;
51560;SDS011;37654;51.262;17.058;2023-01-23T00:40:32;104.72;;;32.22;;
51560;SDS011;37654;51.262;17.058;2023-01-23T00:42:58;87.38;;;29.20;;
51560;SDS011;37654;51.262;17.058;2023-01-23T00:45:23;88.05;;;28.77;;
51560;SDS011;37654;51.262;17.058;2023-01-23T00:47:48;119.82;;;30.45;;
51560;SDS011;37654;51.262;17.058;2023-01-23T00:50:13;120.68;;;32.33;;
51560;SDS011;37654;51.262;17.058;2023-01-23T00:52:39;133.02;;;35.13;;
51560;SDS011;37654;51.262;17.058;2023-01-23T00:55:04;152.73;;;37.65;;
51560;SDS011;37654;51.262;17.058;2023-01-23T00:57:30;148.50;;;35.42;;
51560;SDS011;37654;51.262;17.058;2023-01-23T00:59:55;147.95;;;32.85;;
51560;SDS011;37654;51.262;17.058;2023-01-23T01:02:20;147.43;;;35.58;;
51560;SDS011;37654;51.262;17.058;2023-01-23T01:04:45;142.45;;;36.92;;
51560;SDS011;37654;51.262;17.058;2023-01-23T01:07:11;176.23;;;38.50;;
51560;SDS011;37654;51.262;17.058;2023-01-23T01:09:36;186.88;;;39.40;;
51560;SDS011;37654;51.262;17.058;2023-01-23T01:12:01;190.23;;;39.92;;
51560;SDS011;37654;51.262;17.058;2023-01-23T01:14:26;204.57;;;39.13;;
51560;SDS011;37654;51.262;17.058;2023-01-23T01:16:52;201.63;;;44.75;;
51560;SDS011;37654;51.262;17.058;2023-01-23T01:19:17;229.88;;;47.45;;
51560;SDS011;37654;51.262;17.058;2023-01-23T01:21:43;179.95;;;42.05;;
51560;SDS011;37654;51.262;17.058;2023-01-23T01:24:08;206.43;;;45.45;;
51560;SDS011;37654;51.262;17.058;2023-01-23T01:26:34;220.65;;;48.05;;
51560;SDS011;37654;51.262;17.058;2023-01-23T01:28:59;263.38;;;48.28;;
51560;SDS011;37654;51.262;17.058;2023-01-23T01:31:25;214.77;;;43.53;;
51560;SDS011;37654;51.262;17.058;2023-01-23T01:33:50;253.50;;;51.47;;
51560;SDS011;37654;51.262;17.058;2023-01-23T01:36:16;261.83;;;51.10;;
51560;SDS011;37654;51.262;17.058;2023-01-23T01:38:42;240.88;;;46.55;;
51560;SDS011;37654;51.262;17.058;2023-01-23T01:41:07;244.85;;;49.45;;
51560;SDS011;37654;51.262;17.058;2023-01-23T01:43:33;249.60;;;50.20;;
51560;SDS011;37654;51.262;17.058;2023-01-23T01:48:25;231.68;;;47.03;;
51560;SDS011;37654;51.262;17.058;2023-01-23T01:50:52;251.38;;;47.95;;
51560;SDS011;37654;51.262;17.058;2023-01-23T01:53:18;264.85;;;48.53;;
51560;SDS011;37654;51.262;17.058;2023-01-23T01:55:44;247.40;;;42.60;;
51560;SDS011;37654;51.262;17.058;2023-01-23T01:58:10;234.15;;;46.33;;
51560;SDS011;37654;51.262;17.058;2023-01-23T02:00:36;219.23;;;44.75;;
51560;SDS011;37654;51.262;17.058;2023-01-23T02:03:01;285.58;;;45.63;;
51560;SDS011;37654;51.262;17.058;2023-01-23T02:07:53;247.17;;;51.53;;
51560;SDS011;37654;51.262;17.058;2023-01-23T02:10:20;237.55;;;50.53;;
51560;SDS011;37654;51.262;17.058;2023-01-23T02:12:47;243.43;;;43.50;;
51560;SDS011;37654;51.262;17.058;2023-01-23T02:15:12;254.30;;;47.92;;
51560;SDS011;37654;51.262;17.058;2023-01-23T02:17:38;205.90;;;42.92;;
51560;SDS011;37654;51.262;17.058;2023-01-23T02:27:37;246.57;;;45.78;;
51560;SDS011;37654;51.262;17.058;2023-01-23T02:30:03;206.38;;;42.92;;
51560;SDS011;37654;51.262;17.058;2023-01-23T02:32:30;191.00;;;41.67;;
51560;SDS011;37654;51.262;17.058;2023-01-23T02:34:56;240.23;;;51.58;;
51560;SDS011;37654;51.262;17.058;2023-01-23T02:37:23;271.33;;;50.35;;
51560;SDS011;37654;51.262;17.058;2023-01-23T02:39:52;315.55;;;53.03;;
51560;SDS011;37654;51.262;17.058;2023-01-23T02:42:17;284.40;;;49.75;;
51560;SDS011;37654;51.262;17.058;2023-01-23T02:44:42;288.02;;;50.72;;
51560;SDS011;37654;51.262;17.058;2023-01-23T02:47:10;273.35;;;49.80;;
51560;SDS011;37654;51.262;17.058;2023-01-23T02:49:39;287.90;;;49.90;;
51560;SDS011;37654;51.262;17.058;2023-01-23T02:52:06;220.65;;;43.55;;
51560;SDS011;37654;51.262;17.058;2023-01-23T02:54:33;233.70;;;51.45;;
51560;SDS011;37654;51.262;17.058;2023-01-23T02:56:58;199.30;;;45.47;;
51560;SDS011;37654;51.262;17.058;2023-01-23T02:59:24;281.77;;;55.72;;
51560;SDS011;37654;51.262;17.058;2023-01-23T03:02:03;267.90;;;53.03;;
51560;SDS011;37654;51.262;17.058;2023-01-23T03:04:30;291.52;;;53.08;;
51560;SDS011;37654;51.262;17.058;2023-01-23T03:06:55;224.70;;;42.78;;
51560;SDS011;37654;51.262;17.058;2023-01-23T03:09:20;243.27;;;47.78;;
51560;SDS011;37654;51.262;17.058;2023-01-23T03:11:46;233.15;;;45.38;;
51560;SDS011;37654;51.262;17.058;2023-01-23T03:14:13;217.95;;;48.35;;
51560;SDS011;37654;51.262;17.058;2023-01-23T03:16:39;314.17;;;54.00;;
51560;SDS011;37654;51.262;17.058;2023-01-23T03:19:06;267.30;;;45.35;;
51560;SDS011;37654;51.262;17.058;2023-01-23T03:21:33;244.75;;;51.10;;
51560;SDS011;37654;51.262;17.058;2023-01-23T03:23:59;291.33;;;49.17;;
51560;SDS011;37654;51.262;17.058;2023-01-23T03:26:24;271.63;;;47.60;;
51560;SDS011;37654;51.262;17.058;2023-01-23T03:28:50;286.40;;;51.78;;
51560;SDS011;37654;51.262;17.058;2023-01-23T03:31:29;247.45;;;49.25;;
51560;SDS011;37654;51.262;17.058;2023-01-23T03:33:54;252.43;;;48.28;;
51560;SDS011;37654;51.262;17.058;2023-01-23T03:36:19;294.83;;;55.60;;
51560;SDS011;37654;51.262;17.058;2023-01-23T03:38:45;276.45;;;55.35;;
51560;SDS011;37654;51.262;17.058;2023-01-23T03:41:23;302.10;;;56.42;;
51560;SDS011;37654;51.262;17.058;2023-01-23T03:43:51;295.60;;;56.50;;
51560;SDS011;37654;51.262;17.058;2023-01-23T03:46:16;244.32;;;50.03;;
51560;SDS011;37654;51.262;17.058;2023-01-23T03:48:41;255.85;;;50.30;;
51560;SDS011;37654;51.262;17.058;2023-01-23T03:51:07;229.40;;;47.00;;
51560;SDS011;37654;51.262;17.058;2023-01-23T03:53:32;260.00;;;56.55;;
51560;SDS011;37654;51.262;17.058;2023-01-23T03:55:57;281.77;;;54.92;;
51560;SDS011;37654;51.262;17.058;2023-01-23T03:58:23;311.77;;;59.00;;
51560;SDS011;37654;51.262;17.058;2023-01-23T04:00:48;304.30;;;58.17;;
51560;SDS011;37654;51.262;17.058;2023-01-23T04:03:13;312.27;;;60.97;;
51560;SDS011;37654;51.262;17.058;2023-01-23T04:05:39;329.90;;;60.67;;
51560;SDS011;37654;51.262;17.058;2023-01-23T04:08:04;278.00;;;55.15;;
51560;SDS011;37654;51.262;17.058;2023-01-23T04:10:29;307.80;;;57.00;;
51560;SDS011;37654;51.262;17.058;2023-01-23T04:12:54;325.63;;;59.30;;
51560;SDS011;37654;51.262;17.058;2023-01-23T04:15:20;293.58;;;55.05;;
51560;SDS011;37654;51.262;17.058;2023-01-23T04:17:45;310.80;;;52.10;;
51560;SDS011;37654;51.262;17.058;2023-01-23T04:20:11;273.58;;;51.85;;
51560;SDS011;37654;51.262;17.058;2023-01-23T04:22:36;273.63;;;51.78;;
51560;SDS011;37654;51.262;17.058;2023-01-23T04:25:02;306.05;;;59.45;;
51560;SDS011;37654;51.262;17.058;2023-01-23T04:27:27;269.38;;;50.35;;
51560;SDS011;37654;51.262;17.058;2023-01-23T04:29:52;303.48;;;49.15;;
51560;SDS011;37654;51.262;17.058;2023-01-23T04:32:18;257.10;;;52.42;;
51560;SDS011;37654;51.262;17.058;2023-01-23T04:34:43;292.67;;;55.55;;
51560;SDS011;37654;51.262;17.058;2023-01-23T04:37:08;304.10;;;49.73;;
51560;SDS011;37654;51.262;17.058;2023-01-23T04:39:33;260.05;;;49.38;;
51560;SDS011;37654;51.262;17.058;2023-01-23T04:41:59;292.17;;;49.28;;
51560;SDS011;37654;51.262;17.058;2023-01-23T04:44:24;255.55;;;53.03;;
51560;SDS011;37654;51.262;17.058;2023-01-23T04:46:51;248.45;;;49.35;;
51560;SDS011;37654;51.262;17.058;2023-01-23T04:49:20;237.57;;;50.75;;
51560;SDS011;37654;51.262;17.058;2023-01-23T04:51:46;250.95;;;48.63;;
51560;SDS011;37654;51.262;17.058;2023-01-23T04:54:12;252.02;;;51.58;;
51560;SDS011;37654;51.262;17.058;2023-01-23T04:56:37;217.02;;;47.38;;
51560;SDS011;37654;51.262;17.058;2023-01-23T04:59:03;274.02;;;56.03;;
51560;SDS011;37654;51.262;17.058;2023-01-23T05:01:28;255.90;;;50.33;;
51560;SDS011;37654;51.262;17.058;2023-01-23T05:03:53;240.32;;;49.33;;
51560;SDS011;37654;51.262;17.058;2023-01-23T05:06:18;248.40;;;55.72;;
51560;SDS011;37654;51.262;17.058;2023-01-23T05:08:44;206.43;;;46.33;;
51560;SDS011;37654;51.262;17.058;2023-01-23T05:11:09;257.67;;;54.22;;
51560;SDS011;37654;51.262;17.058;2023-01-23T05:13:35;286.08;;;54.97;;
51560;SDS011;37654;51.262;17.058;2023-01-23T05:16:00;303.27;;;55.45;;
51560;SDS011;37654;51.262;17.058;2023-01-23T05:18:25;275.48;;;55.80;;
51560;SDS011;37654;51.262;17.058;2023-01-23T05:20:51;219.73;;;46.45;;
51560;SDS011;37654;51.262;17.058;2023-01-23T05:23:16;263.17;;;52.08;;
51560;SDS011;37654;51.262;17.058;2023-01-23T05:25:41;291.25;;;57.50;;
51560;SDS011;37654;51.262;17.058;2023-01-23T05:28:07;307.38;;;55.30;;
51560;SDS011;37654;51.262;17.058;2023-01-23T05:30:32;259.17;;;54.95;;
51560;SDS011;37654;51.262;17.058;2023-01-23T05:32:57;280.58;;;52.75;;
51560;SDS011;37654;51.262;17.058;2023-01-23T05:35:22;293.60;;;56.08;;
51560;SDS011;37654;51.262;17.058;2023-01-23T05:37:51;266.30;;;55.47;;
51560;SDS011;37654;51.262;17.058;2023-01-23T05:40:16;288.10;;;55.63;;
51560;SDS011;37654;51.262;17.058;2023-01-23T05:42:42;324.55;;;58.25;;
51560;SDS011;37654;51.262;17.058;2023-01-23T05:45:08;326.15;;;59.08;;
51560;SDS011;37654;51.262;17.058;2023-01-23T05:47:33;271.42;;;52.67;;
51560;SDS011;37654;51.262;17.058;2023-01-23T05:49:58;309.65;;;56.72;;
51560;SDS011;37654;51.262;17.058;2023-01-23T05:52:25;317.55;;;57.58;;
51560;SDS011;37654;51.262;17.058;2023-01-23T05:54:50;296.52;;;57.65;;
51560;SDS011;37654;51.262;17.058;2023-01-23T05:57:15;317.70;;;55.38;;
51560;SDS011;37654;51.262;17.058;2023-01-23T05:59:41;285.92;;;53.35;;
51560;SDS011;37654;51.262;17.058;2023-01-23T06:02:06;288.35;;;54.15;;
51560;SDS011;37654;51.262;17.058;2023-01-23T06:04:31;330.65;;;57.05;;
51560;SDS011;37654;51.262;17.058;2023-01-23T06:06:57;329.98;;;55.60;;
51560;SDS011;37654;51.262;17.058;2023-01-23T06:09:22;360.55;;;57.92;;
51560;SDS011;37654;51.262;17.058;2023-01-23T06:11:47;283.55;;;53.00;;
51560;SDS011;37654;51.262;17.058;2023-01-23T06:14:12;353.98;;;58.60;;
51560;SDS011;37654;51.262;17.058;2023-01-23T06:16:38;291.48;;;54.55;;
51560;SDS011;37654;51.262;17.058;2023-01-23T06:19:03;293.83;;;55.97;;
51560;SDS011;37654;51.262;17.058;2023-01-23T06:21:28;305.20;;;55.85;;
51560;SDS011;37654;51.262;17.058;2023-01-23T06:23:53;288.65;;;54.67;;
51560;SDS011;37654;51.262;17.058;2023-01-23T06:26:19;276.10;;;50.67;;
51560;SDS011;37654;51.262;17.058;2023-01-23T06:28:44;271.35;;;50.00;;
51560;SDS011;37654;51.262;17.058;2023-01-23T06:31:09;251.48;;;49.28;;
51560;SDS011;37654;51.262;17.058;2023-01-23T06:33:35;240.88;;;46.20;;
51560;SDS011;37654;51.262;17.058;2023-01-23T06:36:02;229.38;;;47.72;;
51560;SDS011;37654;51.262;17.058;2023-01-23T06:38:27;215.43;;;48.75;;
51560;SDS011;37654;51.262;17.058;2023-01-23T06:40:53;213.23;;;43.38;;
51560;SDS011;37654;51.262;17.058;2023-01-23T06:43:18;239.90;;;50.47;;
51560;SDS011;37654;51.262;17.058;2023-01-23T06:45:44;315.73;;;56.90;;
51560;SDS011;37654;51.262;17.058;2023-01-23T06:48:10;245.48;;;48.78;;
51560;SDS011;37654;51.262;17.058;2023-01-23T06:50:36;278.75;;;53.13;;
51560;SDS011;37654;51.262;17.058;2023-01-23T06:53:02;273.08;;;51.30;;
51560;SDS011;37654;51.262;17.058;2023-01-23T06:55:27;281.40;;;54.90;;
51560;SDS011;37654;51.262;17.058;2023-01-23T06:57:52;278.00;;;56.20;;
51560;SDS011;37654;51.262;17.058;2023-01-23T07:00:18;305.75;;;55.22;;
51560;SDS011;37654;51.262;17.058;2023-01-23T07:02:43;322.02;;;58.03;;
51560;SDS011;37654;51.262;17.058;2023-01-23T07:05:08;252.35;;;47.58;;
51560;SDS011;37654;51.262;17.058;2023-01-23T07:07:34;279.90;;;57.22;;
51560;SDS011;37654;51.262;17.058;2023-01-23T07:09:59;274.30;;;49.72;;
51560;SDS011;37654;51.262;17.058;2023-01-23T07:12:24;286.48;;;56.95;;
51560;SDS011;37654;51.262;17.058;2023-01-23T07:14:50;251.88;;;49.42;;
51560;SDS011;37654;51.262;17.058;2023-01-23T07:17:15;295.02;;;56.97;;
51560;SDS011;37654;51.262;17.058;2023-01-23T07:19:40;268.77;;;53.40;;
51560;SDS011;37654;51.262;17.058;2023-01-23T07:22:05;297.73;;;58.13;;
51560;SDS011;37654;51.262;17.058;2023-01-23T07:24:31;293.55;;;60.13;;
51560;SDS011;37654;51.262;17.058;2023-01-23T07:26:56;249.77;;;54.10;;
51560;SDS011;37654;51.262;17.058;2023-01-23T07:29:22;264.08;;;48.83;;
51560;SDS011;37654;51.262;17.058;2023-01-23T07:31:47;259.55;;;52.05;;
51560;SDS011;37654;51.262;17.058;2023-01-23T07:34:12;276.23;;;55.70;;
51560;SDS011;37654;51.262;17.058;2023-01-23T07:36:37;270.00;;;55.92;;
51560;SDS011;37654;51.262;17.058;2023-01-23T07:39:03;267.42;;;50.03;;
51560;SDS011;37654;51.262;17.058;2023-01-23T07:41:28;271.80;;;55.85;;
51560;SDS011;37654;51.262;17.058;2023-01-23T07:43:53;223.95;;;50.20;;
51560;SDS011;37654;51.262;17.058;2023-01-23T07:46:19;256.67;;;51.25;;
51560;SDS011;37654;51.262;17.058;2023-01-23T07:48:44;239.52;;;48.25;;
51560;SDS011;37654;51.262;17.058;2023-01-23T07:51:09;216.75;;;52.15;;
51560;SDS011;37654;51.262;17.058;2023-01-23T07:53:35;287.40;;;56.75;;
51560;SDS011;37654;51.262;17.058;2023-01-23T07:56:04;226.93;;;48.90;;
51560;SDS011;37654;51.262;17.058;2023-01-23T07:58:30;208.45;;;47.42;;
51560;SDS011;37654;51.262;17.058;2023-01-23T08:00:56;243.35;;;50.15;;
51560;SDS011;37654;51.262;17.058;2023-01-23T08:03:21;229.13;;;45.90;;
51560;SDS011;37654;51.262;17.058;2023-01-23T08:05:47;211.43;;;50.15;;
51560;SDS011;37654;51.262;17.058;2023-01-23T08:08:12;249.15;;;54.38;;
51560;SDS011;37654;51.262;17.058;2023-01-23T08:10:37;225.57;;;49.90;;
51560;SDS011;37654;51.262;17.058;2023-01-23T08:13:03;270.83;;;54.50;;
51560;SDS011;37654;51.262;17.058;2023-01-23T08:15:28;224.70;;;45.72;;
51560;SDS011;37654;51.262;17.058;2023-01-23T08:17:53;238.77;;;53.20;;
51560;SDS011;37654;51.262;17.058;2023-01-23T08:20:18;212.02;;;47.00;;
51560;SDS011;37654;51.262;17.058;2023-01-23T08:22:45;208.13;;;47.97;;
51560;SDS011;37654;51.262;17.058;2023-01-23T08:25:11;190.90;;;45.75;;
51560;SDS011;37654;51.262;17.058;2023-01-23T08:27:36;178.15;;;40.55;;
51560;SDS011;37654;51.262;17.058;2023-01-23T08:30:02;192.10;;;43.83;;
51560;SDS011;37654;51.262;17.058;2023-01-23T08:32:28;245.93;;;52.63;;
51560;SDS011;37654;51.262;17.058;2023-01-23T08:34:53;245.52;;;47.00;;
51560;SDS011;37654;51.262;17.058;2023-01-23T08:37:19;205.02;;;44.03;;
51560;SDS011;37654;51.262;17.058;2023-01-23T08:39:44;214.02;;;43.13;;
51560;SDS011;37654;51.262;17.058;2023-01-23T08:42:09;205.85;;;48.58;;
51560;SDS011;37654;51.262;17.058;2023-01-23T08:44:37;168.60;;;40.10;;
51560;SDS011;37654;51.262;17.058;2023-01-23T08:47:03;190.77;;;41.95;;
51560;SDS011;37654;51.262;17.058;2023-01-23T08:49:29;191.00;;;41.95;;
51560;SDS011;37654;51.262;17.058;2023-01-23T08:51:54;226.43;;;45.72;;
51560;SDS011;37654;51.262;17.058;2023-01-23T08:54:20;229.20;;;49.95;;
51560;SDS011;37654;51.262;17.058;2023-01-23T08:56:46;222.40;;;45.42;;
51560;SDS011;37654;51.262;17.058;2023-01-23T08:59:11;216.93;;;49.60;;
51560;SDS011;37654;51.262;17.058;2023-01-23T09:01:36;185.48;;;40.92;;
51560;SDS011;37654;51.262;17.058;2023-01-23T09:04:02;179.82;;;41.22;;
51560;SDS011;37654;51.262;17.058;2023-01-23T09:06:27;179.70;;;42.47;;
51560;SDS011;37654;51.262;17.058;2023-01-23T09:08:52;212.82;;;42.20;;
51560;SDS011;37654;51.262;17.058;2023-01-23T09:11:17;214.38;;;46.63;;
51560;SDS011;37654;51.262;17.058;2023-01-23T09:13:44;161.52;;;38.40;;
51560;SDS011;37654;51.262;17.058;2023-01-23T09:16:09;193.68;;;47.28;;
51560;SDS011;37654;51.262;17.058;2023-01-23T09:18:35;176.48;;;39.63;;
51560;SDS011;37654;51.262;17.058;2023-01-23T09:21:04;178.88;;;39.63;;
51560;SDS011;37654;51.262;17.058;2023-01-23T09:23:31;160.57;;;39.10;;
51560;SDS011;37654;51.262;17.058;2023-01-23T09:26:17;200.95;;;41.72;;
51560;SDS011;37654;51.262;17.058;2023-01-23T09:28:42;158.57;;;40.45;;
51560;SDS011;37654;51.262;17.058;2023-01-23T09:31:10;163.20;;;40.20;;
51560;SDS011;37654;51.262;17.058;2023-01-23T09:33:35;167.27;;;43.42;;
51560;SDS011;37654;51.262;17.058;2023-01-23T09:36:01;163.32;;;43.95;;
51560;SDS011;37654;51.262;17.058;2023-01-23T09:38:26;141.38;;;40.08;;
51560;SDS011;37654;51.262;17.058;2023-01-23T09:40:53;149.45;;;41.00;;
51560;SDS011;37654;51.262;17.058;2023-01-23T09:43:28;126.13;;;36.30;;
51560;SDS011;37654;51.262;17.058;2023-01-23T09:48:48;165.90;;;42.47;;
51560;SDS011;37654;51.262;17.058;2023-01-23T09:53:48;172.90;;;45.80;;
51560;SDS011;37654;51.262;17.058;2023-01-23T09:56:21;160.82;;;40.85;;
51560;SDS011;37654;51.262;17.058;2023-01-23T10:01:15;150.10;;;45.05;;
51560;SDS011;37654;51.262;17.058;2023-01-23T10:03:41;146.55;;;42.20;;
51560;SDS011;37654;51.262;17.058;2023-01-23T10:06:11;122.85;;;36.97;;
51560;SDS011;37654;51.262;17.058;2023-01-23T10:19:03;132.32;;;40.58;;
51560;SDS011;37654;51.262;17.058;2023-01-23T10:26:49;121.07;;;40.47;;
51560;SDS011;37654;51.262;17.058;2023-01-23T10:31:53;133.63;;;38.47;;
51560;SDS011;37654;51.262;17.058;2023-01-23T10:37:14;160.30;;;43.77;;
51560;SDS011;37654;51.262;17.058;2023-01-23T10:42:09;146.97;;;44.57;;
51560;SDS011;37654;51.262;17.058;2023-01-23T10:44:35;146.05;;;40.72;;
51560;SDS011;37654;51.262;17.058;2023-01-23T10:47:00;147.35;;;42.63;;
51560;SDS011;37654;51.262;17.058;2023-01-23T10:49:28;112.15;;;39.20;;
51560;SDS011;37654;51.262;17.058;2023-01-23T10:51:55;131.38;;;42.30;;
51560;SDS011;37654;51.262;17.058;2023-01-23T10:54:21;125.82;;;41.15;;
51560;SDS011;37654;51.262;17.058;2023-01-23T10:59:24;109.07;;;36.05;;
51560;SDS011;37654;51.262;17.058;2023-01-23T11:02:01;118.97;;;37.40;;
51560;SDS011;37654;51.262;17.058;2023-01-23T11:04:28;107.30;;;36.70;;
51560;SDS011;37654;51.262;17.058;2023-01-23T11:07:04;119.53;;;41.80;;
51560;SDS011;37654;51.262;17.058;2023-01-23T11:09:30;118.63;;;39.42;;
51560;SDS011;37654;51.262;17.058;2023-01-23T11:12:02;113.57;;;40.20;;
51560;SDS011;37654;51.262;17.058;2023-01-23T11:14:27;109.35;;;39.97;;
51560;SDS011;37654;51.262;17.058;2023-01-23T11:17:00;129.70;;;42.30;;
51560;SDS011;37654;51.262;17.058;2023-01-23T11:19:27;133.10;;;43.55;;
51560;SDS011;37654;51.262;17.058;2023-01-23T11:21:55;122.07;;;40.58;;
51560;SDS011;37654;51.262;17.058;2023-01-23T11:24:26;132.23;;;42.13;;
51560;SDS011;37654;51.262;17.058;2023-01-23T11:27:03;121.75;;;37.80;;
51560;SDS011;37654;51.262;17.058;2023-01-23T11:29:29;127.93;;;40.50;;
51560;SDS011;37654;51.262;17.058;2023-01-23T11:31:59;132.43;;;43.42;;
51560;SDS011;37654;51.262;17.058;2023-01-23T11:34:32;147.98;;;42.85;;
51560;SDS011;37654;51.262;17.058;2023-01-23T11:37:01;122.00;;;41.17;;
51560;SDS011;37654;51.262;17.058;2023-01-23T11:41:59;111.38;;;39.05;;
51560;SDS011;37654;51.262;17.058;2023-01-23T11:44:25;113.65;;;37.35;;
51560;SDS011;37654;51.262;17.058;2023-01-23T11:57:04;106.95;;;36.42;;
51560;SDS011;37654;51.262;17.058;2023-01-23T12:02:25;110.40;;;38.05;;
51560;SDS011;37654;51.262;17.058;2023-01-23T12:07:26;105.72;;;36.80;;
51560;SDS011;37654;51.262;17.058;2023-01-23T12:10:02;106.03;;;37.05;;
51560;SDS011;37654;51.262;17.058;2023-01-23T12:12:36;116.10;;;40.00;;
51560;SDS011;37654;51.262;17.058;2023-01-23T12:27:44;112.88;;;37.78;;
51560;SDS011;37654;51.262;17.058;2023-01-23T12:35:20;119.88;;;41.95;;
51560;SDS011;37654;51.262;17.058;2023-01-23T12:40:30;124.50;;;40.55;;
51560;SDS011;37654;51.262;17.058;2023-01-23T12:43:01;123.20;;;38.97;;
51560;SDS011;37654;51.262;17.058;2023-01-23T12:45:28;131.05;;;40.28;;
51560;SDS011;37654;51.262;17.058;2023-01-23T12:50:22;116.82;;;38.45;;
51560;SDS011;37654;51.262;17.058;2023-01-23T12:52:52;123.88;;;39.35;;
51560;SDS011;37654;51.262;17.058;2023-01-23T12:55:20;121.07;;;40.25;;
51560;SDS011;37654;51.262;17.058;2023-01-23T12:57:47;115.95;;;38.25;;
51560;SDS011;37654;51.262;17.058;2023-01-23T13:05:42;130.57;;;43.03;;
51560;SDS011;37654;51.262;17.058;2023-01-23T13:08:16;134.52;;;42.65;;
51560;SDS011;37654;51.262;17.058;2023-01-23T13:13:37;130.15;;;40.45;;
51560;SDS011;37654;51.262;17.058;2023-01-23T13:18:30;144.40;;;43.28;;
51560;SDS011;37654;51.262;17.058;2023-01-23T13:21:15;126.90;;;37.80;;
51560;SDS011;37654;51.262;17.058;2023-01-23T13:24:00;114.28;;;37.05;;
51560;SDS011;37654;51.262;17.058;2023-01-23T13:26:57;118.07;;;36.08;;
51560;SDS011;37654;51.262;17.058;2023-01-23T13:34:40;145.55;;;43.20;;
51560;SDS011;37654;51.262;17.058;2023-01-23T13:40:00;144.85;;;43.72;;
51560;SDS011;37654;51.262;17.058;2023-01-23T13:47:30;139.25;;;46.55;;
51560;SDS011;37654;51.262;17.058;2023-01-23T13:50:18;120.00;;;40.72;;
51560;SDS011;37654;51.262;17.058;2023-01-23T13:52:50;133.93;;;44.65;;
51560;SDS011;37654;51.262;17.058;2023-01-23T13:55:31;128.82;;;40.85;;
51560;SDS011;37654;51.262;17.058;2023-01-23T13:58:15;124.93;;;38.38;;
51560;SDS011;37654;51.262;17.058;2023-01-23T14:00:42;122.97;;;41.67;;
51560;SDS011;37654;51.262;17.058;2023-01-23T14:03:32;120.55;;;42.03;;
51560;SDS011;37654;51.262;17.058;2023-01-23T14:06:12;131.05;;;40.45;;
51560;SDS011;37654;51.262;17.058;2023-01-23T14:08:48;122.88;;;40.60;;
51560;SDS011;37654;51.262;17.058;2023-01-23T14:13:45;124.90;;;40.03;;
51560;SDS011;37654;51.262;17.058;2023-01-23T14:16:11;122.28;;;43.53;;
51560;SDS011;37654;51.262;17.058;2023-01-23T14:21:39;124.85;;;41.40;;
51560;SDS011;37654;51.262;17.058;2023-01-23T14:23:58;150.50;;;43.72;;
51560;SDS011;37654;51.262;17.058;2023-01-23T14:26:32;129.25;;;39.08;;
51560;SDS011;37654;51.262;17.058;2023-01-23T14:28:59;119.47;;;38.03;;
51560;SDS011;37654;51.262;17.058;2023-01-23T14:33:54;136.93;;;43.60;;
51560;SDS011;37654;51.262;17.058;2023-01-23T14:36:19;134.23;;;42.95;;
51560;SDS011;37654;51.262;17.058;2023-01-23T14:38:45;133.98;;;43.53;;
51560;SDS011;37654;51.262;17.058;2023-01-23T14:41:11;118.40;;;38.30;;
51560;SDS011;37654;51.262;17.058;2023-01-23T14:43:37;133.40;;;41.30;;
51560;SDS011;37654;51.262;17.058;2023-01-23T14:48:48;127.00;;;41.45;;
51560;SDS011;37654;51.262;17.058;2023-01-23T14:53:40;138.98;;;39.35;;
51560;SDS011;37654;51.262;17.058;2023-01-23T14:56:06;142.45;;;46.28;;
51560;SDS011;37654;51.262;17.058;2023-01-23T14:58:32;134.63;;;42.25;;
51560;SDS011;37654;51.262;17.058;2023-01-23T15:00:58;123.03;;;41.47;;
51560;SDS011;37654;51.262;17.058;2023-01-23T15:05:59;143.90;;;43.95;;
51560;SDS011;37654;51.262;17.058;2023-01-23T15:08:30;146.63;;;48.90;;
51560;SDS011;37654;51.262;17.058;2023-01-23T15:10:57;149.80;;;47.15;;
51560;SDS011;37654;51.262;17.058;2023-01-23T15:13:25;139.88;;;43.50;;
51560;SDS011;37654;51.262;17.058;2023-01-23T15:15:57;147.63;;;48.05;;
51560;SDS011;37654;51.262;17.058;2023-01-23T15:18:26;123.53;;;42.00;;
51560;SDS011;37654;51.262;17.058;2023-01-23T15:20:54;146.82;;;46.08;;
51560;SDS011;37654;51.262;17.058;2023-01-23T15:28:38;129.57;;;43.28;;
51560;SDS011;37654;51.262;17.058;2023-01-23T15:31:04;144.38;;;45.95;;
51560;SDS011;37654;51.262;17.058;2023-01-23T15:33:30;138.02;;;44.60;;
51560;SDS011;37654;51.262;17.058;2023-01-23T15:36:06;128.45;;;40.47;;
51560;SDS011;37654;51.262;17.058;2023-01-23T15:38:32;134.30;;;45.10;;
51560;SDS011;37654;51.262;17.058;2023-01-23T15:40:58;117.63;;;38.83;;
51560;SDS011;37654;51.262;17.058;2023-01-23T15:43:23;133.73;;;44.53;;
51560;SDS011;37654;51.262;17.058;2023-01-23T15:45:48;138.60;;;43.40;;
51560;SDS011;37654;51.262;17.058;2023-01-23T15:48:14;134.15;;;41.35;;
51560;SDS011;37654;51.262;17.058;2023-01-23T15:50:39;142.63;;;42.93;;
51560;SDS011;37654;51.262;17.058;2023-01-23T15:53:09;129.68;;;41.85;;
51560;SDS011;37654;51.262;17.058;2023-01-23T15:55:35;134.90;;;44.58;;
51560;SDS011;37654;51.262;17.058;2023-01-23T15:58:00;139.70;;;46.22;;
51560;SDS011;37654;51.262;17.058;2023-01-23T16:00:26;122.75;;;40.22;;
51560;SDS011;37654;51.262;17.058;2023-01-23T16:02:52;136.48;;;42.33;;
51560;SDS011;37654;51.262;17.058;2023-01-23T16:05:22;132.07;;;43.70;;
51560;SDS011;37654;51.262;17.058;2023-01-23T16:07:47;140.25;;;45.42;;